createdAt,value
2019-03-13T00:00:59.848Z,71.00
2019-03-13T00:02:22.100Z,71.30
2019-03-13T00:03:26.367Z,71.50
2019-03-13T00:04:30.745Z,71.70
2019-03-13T00:05:34.959Z,71.20
2019-03-13T00:06:39.259Z,71.60
2019-03-13T00:07:43.602Z,71.90
2019-03-13T00:08:47.897Z,71.20
2019-03-13T00:09:52.101Z,71.20
2019-03-13T00:10:56.394Z,70.50
2019-03-13T00:12:00.541Z,70.70
2019-03-13T00:13:05.024Z,71.40
2019-03-13T00:14:09.165Z,70.70
2019-03-13T00:15:13.895Z,71.10
2019-03-13T00:16:18.661Z,71.10
2019-03-13T00:17:23.111Z,71.00
2019-03-13T00:18:27.314Z,71.10
2019-03-13T00:19:31.499Z,71.10
2019-03-13T00:20:35.677Z,71.10
2019-03-13T00:21:39.884Z,71.10
2019-03-13T00:22:44.117Z,70.50
2019-03-13T00:23:48.389Z,71.00
2019-03-13T00:24:52.554Z,71.10
2019-03-13T00:25:56.752Z,71.00
2019-03-13T00:27:00.919Z,71.20
2019-03-13T00:28:05.123Z,71.00
2019-03-13T00:29:09.257Z,70.60
2019-03-13T00:30:15.409Z,70.90
2019-03-13T00:31:19.698Z,71.70
2019-03-13T00:32:23.898Z,71.10
2019-03-13T00:33:28.074Z,71.00
2019-03-13T00:34:32.298Z,70.90
2019-03-13T00:35:36.462Z,71.70
2019-03-13T00:36:40.627Z,72.10
2019-03-13T00:37:44.929Z,71.90
2019-03-13T00:38:49.103Z,71.70
2019-03-13T00:39:53.246Z,72.30
2019-03-13T00:40:57.483Z,72.80
2019-03-13T00:42:01.716Z,71.90
2019-03-13T00:43:05.980Z,72.10
2019-03-13T00:44:10.701Z,72.50
2019-03-13T00:45:16.241Z,72.70
2019-03-13T00:46:20.579Z,71.90
2019-03-13T00:47:24.925Z,72.20
2019-03-13T00:48:29.047Z,71.60
2019-03-13T00:49:33.350Z,71.40
2019-03-13T00:50:37.697Z,71.60
2019-03-13T00:51:41.867Z,72.00
2019-03-13T00:52:46.527Z,72.00
2019-03-13T00:53:50.789Z,71.90
2019-03-13T00:54:55.063Z,71.60
2019-03-13T00:55:59.255Z,71.40
2019-03-13T00:57:03.657Z,72.10
2019-03-13T00:58:07.947Z,73.50
2019-03-13T00:59:12.171Z,73.40
2019-03-13T01:00:28.013Z,72.70
2019-03-13T01:01:51.267Z,72.70
2019-03-13T01:02:55.708Z,73.40
2019-03-13T01:04:06.388Z,72.10
2019-03-13T01:05:23.631Z,72.70
2019-03-13T01:06:31.237Z,73.40
2019-03-13T01:07:35.553Z,73.20
2019-03-13T01:08:39.825Z,71.80
2019-03-13T01:09:44.139Z,72.60
2019-03-13T01:10:48.379Z,73.40
2019-03-13T01:11:52.569Z,72.10
2019-03-13T01:12:56.741Z,71.80
2019-03-13T01:14:00.992Z,72.30
2019-03-13T01:15:06.183Z,71.80
2019-03-13T01:16:10.515Z,72.60
2019-03-13T01:17:14.685Z,72.30
2019-03-13T01:18:18.971Z,73.10
2019-03-13T01:19:23.209Z,73.40
2019-03-13T01:20:27.488Z,73.30
2019-03-13T01:21:31.824Z,73.30
2019-03-13T01:22:36.211Z,72.70
2019-03-13T01:23:40.411Z,72.40
2019-03-13T01:24:44.567Z,73.10
2019-03-13T01:25:48.718Z,73.10
2019-03-13T01:26:53.000Z,73.30
2019-03-13T01:27:57.303Z,73.40
2019-03-13T01:29:01.497Z,73.50
2019-03-13T01:30:06.774Z,73.70
2019-03-13T01:31:32.809Z,73.90
2019-03-13T01:32:47.623Z,76.10
2019-03-13T01:33:51.911Z,74.30
2019-03-13T01:35:21.241Z,75.10
2019-03-13T01:36:25.437Z,75.90
2019-03-13T01:37:29.655Z,76.20
2019-03-13T01:38:33.993Z,75.10
2019-03-13T01:39:38.261Z,75.50
2019-03-13T01:40:42.681Z,74.50
2019-03-13T01:41:46.969Z,75.60
2019-03-13T01:42:51.422Z,74.50
2019-03-13T01:43:55.619Z,73.90
2019-03-13T01:44:59.909Z,74.20
2019-03-13T01:46:04.067Z,73.50
2019-03-13T01:47:08.803Z,73.70
2019-03-13T01:48:13.180Z,73.90
2019-03-13T01:49:17.469Z,74.30
2019-03-13T01:50:21.907Z,74.70
2019-03-13T01:51:26.415Z,74.90
2019-03-13T01:52:32.231Z,75.00
2019-03-13T01:53:36.763Z,74.60
2019-03-13T01:54:41.263Z,75.20
2019-03-13T01:55:45.545Z,75.70
2019-03-13T01:56:49.812Z,75.30
2019-03-13T01:57:54.001Z,74.90
2019-03-13T01:58:58.337Z,76.10
2019-03-13T02:00:02.629Z,74.90
2019-03-13T02:01:06.997Z,75.40
2019-03-13T02:02:11.274Z,75.40
2019-03-13T02:03:15.687Z,74.70
2019-03-13T02:04:19.908Z,74.40
2019-03-13T02:05:24.215Z,74.10
2019-03-13T02:06:28.709Z,74.00
2019-03-13T02:07:32.921Z,73.90
2019-03-13T02:08:37.142Z,73.60
2019-03-13T02:09:41.395Z,73.60
2019-03-13T02:10:45.683Z,74.60
2019-03-13T02:11:49.867Z,75.00
2019-03-13T02:12:54.138Z,74.60
2019-03-13T02:13:58.445Z,73.60
2019-03-13T02:15:02.815Z,73.40
2019-03-13T02:16:07.003Z,73.20
2019-03-13T02:17:11.304Z,73.70
2019-03-13T02:18:15.581Z,74.80
2019-03-13T02:19:19.880Z,75.60
2019-03-13T02:20:24.067Z,75.60
2019-03-13T02:21:28.289Z,75.00
2019-03-13T02:22:32.516Z,75.10
2019-03-13T02:23:36.879Z,75.60
2019-03-13T02:24:41.143Z,75.20
2019-03-13T02:25:45.448Z,76.40
2019-03-13T02:26:49.623Z,74.80
2019-03-13T02:27:54.009Z,74.40
2019-03-13T02:28:58.187Z,74.90
2019-03-13T02:30:02.484Z,74.40
2019-03-13T02:31:06.809Z,75.10
2019-03-13T02:32:11.172Z,75.20
2019-03-13T02:33:15.480Z,75.00
2019-03-13T02:34:19.651Z,74.90
2019-03-13T02:35:23.877Z,75.00
2019-03-13T02:36:28.169Z,75.00
2019-03-13T02:37:32.633Z,74.50
2019-03-13T02:38:36.846Z,75.20
2019-03-13T02:39:41.124Z,74.90
2019-03-13T02:40:45.441Z,75.10
2019-03-13T02:41:49.659Z,75.00
2019-03-13T02:42:54.264Z,75.10
2019-03-13T02:43:58.520Z,75.10
2019-03-13T02:45:02.857Z,75.50
2019-03-13T02:46:07.203Z,75.60
2019-03-13T02:47:11.329Z,76.40
2019-03-13T02:48:16.053Z,75.20
2019-03-13T02:49:20.404Z,74.90
2019-03-13T02:50:24.766Z,74.80
2019-03-13T02:51:28.905Z,76.00
2019-03-13T02:52:33.096Z,76.20
2019-03-13T02:53:37.499Z,75.60
2019-03-13T02:54:41.679Z,76.90
2019-03-13T02:55:45.857Z,75.50
2019-03-13T02:56:50.165Z,75.40
2019-03-13T02:57:54.649Z,76.20
2019-03-13T02:58:59.104Z,76.70
2019-03-13T03:00:03.623Z,76.80
2019-03-13T03:01:20.875Z,76.10
2019-03-13T03:02:50.243Z,75.80
2019-03-13T03:03:56.445Z,76.00
2019-03-13T03:05:00.675Z,76.70
2019-03-13T03:06:05.083Z,76.70
2019-03-13T03:07:12.707Z,76.00
2019-03-13T03:08:15.305Z,76.60
2019-03-13T03:09:19.693Z,76.70
2019-03-13T03:10:23.917Z,76.70
2019-03-13T03:11:28.205Z,76.70
2019-03-13T03:12:32.483Z,77.30
2019-03-13T03:13:36.681Z,77.30
2019-03-13T03:14:58.246Z,77.10
2019-03-13T03:16:02.521Z,77.10
2019-03-13T03:17:06.802Z,77.50
2019-03-13T03:18:10.973Z,77.40
2019-03-13T03:19:15.305Z,77.60
2019-03-13T03:20:20.554Z,77.20
2019-03-13T03:21:24.882Z,77.20
2019-03-13T03:22:29.113Z,77.90
2019-03-13T03:23:33.360Z,77.20
2019-03-13T03:24:37.557Z,77.20
2019-03-13T03:25:41.874Z,77.00
2019-03-13T03:26:46.036Z,76.10
2019-03-13T03:27:50.360Z,75.00
2019-03-13T03:28:54.586Z,76.10
2019-03-13T03:29:58.925Z,76.70
2019-03-13T03:31:03.274Z,77.30
2019-03-13T03:32:07.502Z,77.50
2019-03-13T03:33:11.895Z,79.00
2019-03-13T03:34:16.072Z,81.00
2019-03-13T03:35:20.330Z,81.30
2019-03-13T03:36:24.728Z,82.40
2019-03-13T03:37:28.959Z,82.50
2019-03-13T03:38:33.271Z,82.70
2019-03-13T03:39:37.646Z,82.30
2019-03-13T03:40:41.941Z,81.80
2019-03-13T03:41:46.190Z,82.80
2019-03-13T03:42:50.475Z,83.40
2019-03-13T03:43:55.424Z,84.00
2019-03-13T03:44:59.764Z,85.60
2019-03-13T03:46:03.968Z,86.20
2019-03-13T03:47:08.141Z,86.50
2019-03-13T03:48:12.452Z,86.20
2019-03-13T03:49:16.771Z,85.40
2019-03-13T03:50:21.081Z,84.40
2019-03-13T03:51:25.252Z,84.80
2019-03-13T03:52:29.537Z,84.30
2019-03-13T03:53:33.852Z,84.00
2019-03-13T03:54:38.033Z,83.50
2019-03-13T03:55:42.341Z,83.10
2019-03-13T03:56:46.805Z,83.90
2019-03-13T03:57:51.262Z,84.40
2019-03-13T03:58:55.551Z,84.50
2019-03-13T03:59:59.763Z,84.00
2019-03-13T04:01:03.932Z,83.80
2019-03-13T04:02:08.236Z,83.50
2019-03-13T04:03:12.544Z,83.70
2019-03-13T04:04:16.663Z,83.50
2019-03-13T04:05:21.275Z,84.10
2019-03-13T04:06:25.888Z,85.10
2019-03-13T04:07:30.170Z,84.10
2019-03-13T04:08:37.577Z,84.20
2019-03-13T04:09:40.385Z,85.00
2019-03-13T04:10:44.615Z,85.20
2019-03-13T04:11:48.926Z,84.60
2019-03-13T04:12:53.189Z,84.30
2019-03-13T04:13:57.469Z,84.80
2019-03-13T04:15:01.730Z,85.60
2019-03-13T04:16:06.095Z,85.30
2019-03-13T04:17:10.363Z,85.10
2019-03-13T04:18:14.724Z,84.90
2019-03-13T04:19:19.091Z,85.70
2019-03-13T04:20:23.297Z,85.90
2019-03-13T04:21:27.493Z,86.00
2019-03-13T04:22:31.901Z,86.10
2019-03-13T04:23:36.119Z,86.10
2019-03-13T04:24:40.378Z,89.10
2019-03-13T04:25:44.641Z,93.20
2019-03-13T04:26:49.053Z,93.90
2019-03-13T04:27:53.385Z,97.60
2019-03-13T04:28:57.722Z,99.20
2019-03-13T04:30:01.961Z,99.90
2019-03-13T04:31:06.169Z,99.90
2019-03-13T04:32:10.469Z,99.90
2019-03-13T04:33:14.740Z,99.90
2019-03-13T04:34:19.017Z,99.90
2019-03-13T04:35:23.209Z,99.90
2019-03-13T04:36:27.583Z,99.90
2019-03-13T04:37:31.813Z,99.90
2019-03-13T04:38:36.236Z,99.90
2019-03-13T04:39:40.527Z,99.90
2019-03-13T04:40:44.727Z,99.90
2019-03-13T04:41:49.036Z,99.90
2019-03-13T04:42:53.246Z,99.90
2019-03-13T04:43:57.429Z,99.90
2019-03-13T04:45:01.810Z,99.20
2019-03-13T04:46:06.081Z,99.90
2019-03-13T04:47:10.371Z,99.90
2019-03-13T04:48:14.905Z,99.90
2019-03-13T04:49:19.080Z,99.30
2019-03-13T04:50:23.243Z,98.80
2019-03-13T04:51:27.561Z,99.90
2019-03-13T04:52:31.755Z,98.30
2019-03-13T04:53:36.007Z,97.30
2019-03-13T04:54:40.211Z,98.20
2019-03-13T04:55:44.489Z,98.50
2019-03-13T04:56:48.965Z,98.80
2019-03-13T04:57:53.173Z,99.90
2019-03-13T04:58:57.489Z,99.90
2019-03-13T05:00:01.652Z,99.90
2019-03-13T05:01:05.980Z,99.90
2019-03-13T05:02:10.175Z,99.90
2019-03-13T05:03:14.498Z,99.90
2019-03-13T05:04:18.782Z,99.90
2019-03-13T05:05:52.582Z,99.90
2019-03-13T05:06:56.919Z,99.90
2019-03-13T05:08:01.163Z,99.90
2019-03-13T05:09:08.671Z,99.90
2019-03-13T05:10:12.987Z,99.90
2019-03-13T05:11:17.181Z,99.90
2019-03-13T05:12:21.425Z,99.90
2019-03-13T05:13:25.742Z,99.90
2019-03-13T05:14:32.622Z,99.90
2019-03-13T05:15:36.010Z,99.90
2019-03-13T05:16:40.333Z,99.90
2019-03-13T05:17:44.645Z,99.90
2019-03-13T05:18:48.784Z,99.90
2019-03-13T05:19:53.095Z,99.90
2019-03-13T05:20:57.348Z,99.90
2019-03-13T05:22:01.535Z,99.90
2019-03-13T05:23:05.829Z,99.90
2019-03-13T05:24:10.085Z,99.90
2019-03-13T05:25:14.337Z,99.90
2019-03-13T05:26:18.570Z,99.90
2019-03-13T05:27:23.031Z,99.90
2019-03-13T05:28:27.302Z,99.90
2019-03-13T05:29:31.483Z,99.90
2019-03-13T05:30:35.670Z,99.90
2019-03-13T05:31:39.951Z,99.90
2019-03-13T05:32:44.132Z,99.90
2019-03-13T05:33:48.439Z,99.90
2019-03-13T05:34:52.746Z,99.90
2019-03-13T05:35:57.011Z,99.90
2019-03-13T05:37:01.161Z,99.90
2019-03-13T05:38:05.366Z,99.90
2019-03-13T05:39:09.535Z,99.90
2019-03-13T05:40:13.965Z,99.90
2019-03-13T05:41:18.167Z,98.50
2019-03-13T05:42:22.401Z,98.90
2019-03-13T05:43:26.726Z,99.20
2019-03-13T05:44:31.000Z,99.90
2019-03-13T05:45:35.347Z,99.10
2019-03-13T05:46:39.544Z,99.50
2019-03-13T05:47:43.747Z,97.80
2019-03-13T05:48:48.369Z,97.50
2019-03-13T05:49:52.569Z,97.60
2019-03-13T05:50:56.883Z,96.60
2019-03-13T05:52:01.237Z,96.90
2019-03-13T05:53:05.452Z,98.70
2019-03-13T05:54:09.814Z,97.70
2019-03-13T05:55:13.973Z,95.80
2019-03-13T05:56:18.201Z,95.90
2019-03-13T05:57:22.499Z,96.50
2019-03-13T05:58:26.730Z,96.40
2019-03-13T05:59:30.951Z,95.80
2019-03-13T06:00:35.223Z,95.40
2019-03-13T06:01:39.600Z,95.00
2019-03-13T06:02:43.789Z,96.80
2019-03-13T06:03:48.095Z,96.10
2019-03-13T06:04:52.296Z,94.70
2019-03-13T06:05:56.501Z,93.20
2019-03-13T06:07:00.737Z,93.80
2019-03-13T06:08:05.108Z,94.80
2019-03-13T06:09:09.361Z,95.40
2019-03-13T06:10:13.705Z,94.90
2019-03-13T06:11:17.891Z,95.20
2019-03-13T06:12:22.204Z,94.60
2019-03-13T06:13:26.395Z,93.60
2019-03-13T06:14:30.725Z,94.00
2019-03-13T06:15:34.979Z,93.20
2019-03-13T06:16:39.171Z,93.20
2019-03-13T06:17:43.462Z,90.10
2019-03-13T06:18:47.796Z,87.80
2019-03-13T06:19:52.075Z,89.90
2019-03-13T06:20:56.396Z,90.80
2019-03-13T06:22:00.665Z,92.20
2019-03-13T06:23:04.880Z,91.40
2019-03-13T06:24:09.175Z,91.00
2019-03-13T06:25:13.381Z,89.30
2019-03-13T06:26:17.665Z,89.20
2019-03-13T06:27:21.941Z,90.60
2019-03-13T06:28:26.245Z,90.40
2019-03-13T06:29:31.737Z,90.00
2019-03-13T06:30:36.363Z,89.70
2019-03-13T06:31:40.564Z,89.20
2019-03-13T06:32:44.701Z,85.90
2019-03-13T06:33:48.906Z,86.30
2019-03-13T06:34:53.539Z,85.20
2019-03-13T06:35:57.819Z,84.30
2019-03-13T06:37:02.155Z,84.20
2019-03-13T06:38:06.425Z,83.80
2019-03-13T06:39:10.647Z,81.90
2019-03-13T06:40:15.085Z,81.90
2019-03-13T06:41:19.309Z,81.90
2019-03-13T06:42:23.495Z,80.40
2019-03-13T06:43:27.799Z,83.20
2019-03-13T06:44:32.095Z,84.70
2019-03-13T06:45:36.395Z,84.00
2019-03-13T06:46:40.799Z,83.10
2019-03-13T06:47:45.051Z,82.70
2019-03-13T06:48:49.372Z,80.60
2019-03-13T06:49:53.575Z,79.70
2019-03-13T06:50:57.740Z,78.50
2019-03-13T06:52:02.140Z,78.90
2019-03-13T06:53:06.339Z,79.10
2019-03-13T06:54:10.617Z,79.80
2019-03-13T06:55:15.713Z,81.20
2019-03-13T06:56:19.989Z,79.00
2019-03-13T06:57:24.323Z,78.80
2019-03-13T06:58:51.146Z,79.20
2019-03-13T07:00:13.301Z,78.50
2019-03-13T07:01:31.449Z,79.00
2019-03-13T07:02:54.672Z,79.50
2019-03-13T07:04:10.087Z,78.30
2019-03-13T07:05:22.230Z,78.00
2019-03-13T07:06:44.275Z,78.40
2019-03-13T07:07:57.360Z,78.40
2019-03-13T07:09:09.563Z,77.80
2019-03-13T07:10:21.953Z,78.80
2019-03-13T07:11:42.309Z,79.10
2019-03-13T07:13:08.796Z,77.90
2019-03-13T07:14:34.773Z,79.10
2019-03-13T07:15:57.571Z,79.70
2019-03-13T07:17:36.153Z,78.70
2019-03-13T07:19:02.428Z,78.00
2019-03-13T07:20:27.819Z,76.50
2019-03-13T07:21:51.050Z,77.40
2019-03-13T07:23:23.603Z,78.50
2019-03-13T07:24:46.901Z,77.90
2019-03-13T07:26:15.773Z,78.30
2019-03-13T07:27:28.080Z,79.40
2019-03-13T07:29:12.021Z,77.70
2019-03-13T07:30:37.861Z,75.00
2019-03-13T07:32:07.132Z,77.10
2019-03-13T07:33:30.419Z,78.90
2019-03-13T07:34:52.686Z,79.00
2019-03-13T07:36:25.921Z,80.40
2019-03-13T07:37:48.155Z,76.80
2019-03-13T07:39:10.277Z,75.60
2019-03-13T07:40:42.361Z,77.90
2019-03-13T07:42:15.979Z,77.10
2019-03-13T07:43:53.744Z,75.60
2019-03-13T07:45:12.835Z,75.40
2019-03-13T07:46:38.957Z,74.90
2019-03-13T07:48:00.801Z,76.30
2019-03-13T07:49:22.701Z,76.80
2019-03-13T07:50:51.235Z,76.80
2019-03-13T07:52:23.618Z,74.60
2019-03-13T07:53:49.779Z,73.70
2019-03-13T07:55:05.839Z,73.90
2019-03-13T07:56:32.147Z,74.90
2019-03-13T07:58:04.546Z,73.50
2019-03-13T07:59:33.684Z,73.50
2019-03-13T08:00:48.604Z,74.90
2019-03-13T08:02:11.839Z,73.30
2019-03-13T08:03:27.091Z,72.30
2019-03-13T08:04:40.957Z,72.80
2019-03-13T08:06:03.079Z,72.10
2019-03-13T08:07:21.843Z,71.50
2019-03-13T08:08:50.937Z,72.00
2019-03-13T08:10:20.255Z,71.80
2019-03-13T08:11:31.367Z,73.60
2019-03-13T08:12:49.551Z,73.10
2019-03-13T08:14:11.341Z,73.40
2019-03-13T08:15:34.608Z,73.90
2019-03-13T08:16:48.103Z,73.10
2019-03-13T08:18:11.363Z,72.10
2019-03-13T08:19:37.389Z,71.30
2019-03-13T08:21:00.608Z,69.30
2019-03-13T08:22:42.102Z,70.00
2019-03-13T08:23:53.863Z,69.10
2019-03-13T08:25:13.803Z,71.10
2019-03-13T08:26:35.779Z,71.10
2019-03-13T08:28:03.930Z,68.30
2019-03-13T08:29:23.517Z,67.60
2019-03-13T08:30:36.447Z,67.40
2019-03-13T08:32:05.768Z,65.90
2019-03-13T08:33:27.209Z,66.40
2019-03-13T08:34:53.671Z,67.30
2019-03-13T08:36:15.571Z,66.90
2019-03-13T08:37:41.727Z,67.30
2019-03-13T08:39:02.759Z,65.90
2019-03-13T08:40:34.812Z,64.30
2019-03-13T08:42:16.270Z,62.90
2019-03-13T08:43:42.011Z,64.60
2019-03-13T08:44:53.288Z,63.20
2019-03-13T08:46:10.742Z,61.80
2019-03-13T08:47:42.309Z,63.10
2019-03-13T08:49:07.636Z,61.40
2019-03-13T08:50:16.897Z,60.70
2019-03-13T08:51:46.279Z,61.00
2019-03-13T08:53:12.001Z,61.70
2019-03-13T08:54:34.019Z,61.70
2019-03-13T08:55:56.179Z,60.50
2019-03-13T08:57:28.319Z,61.60
2019-03-13T08:59:03.454Z,60.90
2019-03-13T09:00:28.220Z,62.10
2019-03-13T09:01:46.376Z,63.70
2019-03-13T09:03:09.598Z,61.70
2019-03-13T09:04:42.293Z,60.90
2019-03-13T09:06:04.813Z,61.80
2019-03-13T09:07:23.863Z,61.80
2019-03-13T09:08:59.190Z,60.70
2019-03-13T09:10:38.145Z,60.70
2019-03-13T09:12:16.725Z,61.70
2019-03-13T09:13:30.415Z,61.90
2019-03-13T09:14:44.677Z,62.50
2019-03-13T09:16:06.866Z,60.60
2019-03-13T09:17:30.183Z,61.20
2019-03-13T09:18:46.781Z,60.90
2019-03-13T09:19:57.936Z,61.80
2019-03-13T09:21:16.513Z,60.70
2019-03-13T09:22:27.127Z,60.20
2019-03-13T09:23:56.482Z,61.80
2019-03-13T09:25:25.764Z,61.60
2019-03-13T09:26:48.945Z,62.70
2019-03-13T09:28:11.077Z,61.40
2019-03-13T09:29:31.669Z,59.90
2019-03-13T09:31:00.817Z,60.80
2019-03-13T09:32:24.055Z,61.80
2019-03-13T09:33:51.221Z,60.80
2019-03-13T09:35:07.311Z,60.90
2019-03-13T09:36:20.051Z,59.90
2019-03-13T09:38:01.823Z,61.90
2019-03-13T09:39:34.723Z,61.70
2019-03-13T09:41:04.116Z,61.40
2019-03-13T09:42:17.490Z,61.30
2019-03-13T09:43:49.442Z,62.10
2019-03-13T09:45:15.503Z,62.10
2019-03-13T09:46:39.658Z,62.10
2019-03-13T09:48:08.889Z,63.40
2019-03-13T09:49:19.637Z,63.30
2019-03-13T09:50:35.187Z,61.20
2019-03-13T09:51:48.023Z,62.20
2019-03-13T09:53:29.467Z,62.30
2019-03-13T09:54:55.741Z,62.30
2019-03-13T09:56:34.031Z,62.20
2019-03-13T09:58:03.243Z,62.10
2019-03-13T09:59:23.793Z,62.10
2019-03-13T10:01:05.573Z,62.00
2019-03-13T10:02:19.803Z,64.10
2019-03-13T10:03:50.685Z,63.90
2019-03-13T10:05:23.023Z,64.10
2019-03-13T10:06:43.165Z,64.80
2019-03-13T10:07:55.081Z,63.40
2019-03-13T10:09:07.521Z,63.10
2019-03-13T10:10:25.282Z,64.60
2019-03-13T10:11:37.993Z,64.90
2019-03-13T10:12:58.589Z,65.40
2019-03-13T10:14:10.233Z,64.70
2019-03-13T10:15:36.497Z,65.50
2019-03-13T10:17:10.891Z,65.00
2019-03-13T10:18:28.383Z,64.50
2019-03-13T10:19:50.402Z,63.60
2019-03-13T10:21:22.241Z,65.10
2019-03-13T10:22:44.295Z,62.30
2019-03-13T10:24:13.193Z,60.10
2019-03-13T10:25:34.958Z,60.50
2019-03-13T10:26:58.266Z,59.00
2019-03-13T10:28:27.447Z,59.60
2019-03-13T10:29:49.396Z,59.30
2019-03-13T10:31:03.603Z,58.10
2019-03-13T10:32:18.992Z,59.00
2019-03-13T10:33:29.959Z,59.70
2019-03-13T10:34:52.017Z,59.30
2019-03-13T10:36:09.643Z,59.00
2019-03-13T10:37:31.820Z,57.60
2019-03-13T10:38:55.265Z,58.20
2019-03-13T10:40:17.795Z,59.00
2019-03-13T10:41:31.028Z,57.40
2019-03-13T10:42:57.313Z,57.30
2019-03-13T10:44:15.780Z,57.80
2019-03-13T10:45:37.716Z,57.70
2019-03-13T10:47:13.292Z,56.40
2019-03-13T10:48:25.249Z,57.00
2019-03-13T10:49:36.705Z,57.00
2019-03-13T10:50:58.583Z,55.50
2019-03-13T10:52:17.996Z,56.00
2019-03-13T10:53:44.098Z,57.20
2019-03-13T10:55:25.511Z,57.20
2019-03-13T10:57:00.995Z,57.00
2019-03-13T10:58:26.830Z,56.70
2019-03-13T10:59:55.970Z,57.20
2019-03-13T11:01:11.078Z,57.90
2019-03-13T11:02:30.027Z,58.00
2019-03-13T11:04:08.321Z,57.80
2019-03-13T11:05:21.045Z,56.60
2019-03-13T11:06:59.811Z,57.00
2019-03-13T11:08:41.323Z,56.90
2019-03-13T11:10:03.285Z,56.90
2019-03-13T11:11:13.196Z,57.80
2019-03-13T11:12:36.427Z,57.80
2019-03-13T11:14:15.962Z,56.40
2019-03-13T11:15:23.429Z,57.50
2019-03-13T11:16:46.039Z,57.80
2019-03-13T11:18:05.058Z,58.30
2019-03-13T11:19:31.159Z,58.80
2019-03-13T11:21:09.581Z,58.80
2019-03-13T11:22:24.610Z,59.60
2019-03-13T11:23:44.272Z,58.70
2019-03-13T11:25:06.425Z,59.00
2019-03-13T11:26:20.785Z,59.00
2019-03-13T11:27:54.482Z,59.00
2019-03-13T11:29:16.381Z,59.20
2019-03-13T11:30:29.591Z,60.40
2019-03-13T11:31:55.844Z,59.80
2019-03-13T11:33:25.056Z,60.10
2019-03-13T11:34:47.957Z,62.40
2019-03-13T11:36:03.355Z,66.80
2019-03-13T11:37:34.477Z,68.90
2019-03-13T11:39:09.730Z,72.80
2019-03-13T11:40:39.423Z,68.60
2019-03-13T11:42:05.158Z,72.90
2019-03-13T11:43:41.528Z,70.20
2019-03-13T11:45:03.611Z,68.20
2019-03-13T11:46:16.805Z,67.10
2019-03-13T11:47:42.760Z,69.90
2019-03-13T11:48:52.477Z,69.60
2019-03-13T11:50:21.795Z,68.40
2019-03-13T11:51:40.440Z,67.70
2019-03-13T11:53:03.787Z,69.20
2019-03-13T11:54:27.215Z,68.80
2019-03-13T11:55:49.355Z,66.20
2019-03-13T11:57:21.614Z,68.30
2019-03-13T11:58:47.839Z,69.00
2019-03-13T11:59:59.821Z,67.00
2019-03-13T12:01:29.747Z,67.70
2019-03-13T12:02:52.011Z,65.40
2019-03-13T12:04:14.325Z,67.70
2019-03-13T12:05:25.964Z,69.60
2019-03-13T12:06:55.545Z,69.00
2019-03-13T12:08:06.634Z,68.80
2019-03-13T12:09:48.117Z,65.00
2019-03-13T12:11:09.974Z,65.80
2019-03-13T12:12:45.156Z,65.70
2019-03-13T12:14:17.661Z,64.70
2019-03-13T12:15:34.744Z,64.90
2019-03-13T12:17:04.053Z,65.90
2019-03-13T12:18:14.923Z,63.40
2019-03-13T12:19:38.160Z,63.40
2019-03-13T12:21:04.019Z,63.50
2019-03-13T12:22:30.031Z,62.80
2019-03-13T12:23:51.813Z,63.10
2019-03-13T12:25:17.441Z,63.30
2019-03-13T12:26:30.126Z,63.50
2019-03-13T12:27:45.737Z,61.60
2019-03-13T12:29:08.634Z,62.20
2019-03-13T12:30:24.487Z,62.20
2019-03-13T12:31:47.777Z,61.70
2019-03-13T12:33:13.863Z,60.80
2019-03-13T12:34:46.058Z,61.30
2019-03-13T12:36:07.967Z,60.50
2019-03-13T12:37:29.666Z,60.20
2019-03-13T12:39:11.062Z,59.10
2019-03-13T12:40:34.281Z,58.90
2019-03-13T12:41:56.333Z,60.50
2019-03-13T12:43:19.830Z,59.50
2019-03-13T12:44:58.109Z,60.40
2019-03-13T12:46:29.711Z,59.60
2019-03-13T12:47:48.717Z,59.90
2019-03-13T12:49:11.960Z,60.40
2019-03-13T12:50:35.162Z,60.30
2019-03-13T12:51:45.577Z,60.90
2019-03-13T12:53:08.823Z,60.20
2019-03-13T12:54:43.900Z,59.80
2019-03-13T12:56:07.118Z,59.30
2019-03-13T12:57:40.634Z,59.20
2019-03-13T12:59:03.961Z,60.20
2019-03-13T13:00:30.570Z,59.10
2019-03-13T13:01:52.740Z,58.60
2019-03-13T13:03:12.295Z,58.00
2019-03-13T13:04:38.240Z,58.50
2019-03-13T13:05:53.080Z,57.30
2019-03-13T13:07:17.978Z,58.00
2019-03-13T13:08:44.739Z,58.30
2019-03-13T13:10:03.157Z,57.50
2019-03-13T13:11:25.493Z,56.70
2019-03-13T13:12:47.358Z,55.40
2019-03-13T13:14:09.659Z,56.00
2019-03-13T13:15:32.877Z,57.70
2019-03-13T13:16:50.725Z,57.60
2019-03-13T13:18:07.095Z,56.70
2019-03-13T13:19:11.463Z,55.40
2019-03-13T13:20:16.007Z,55.00
2019-03-13T13:21:20.857Z,55.40
2019-03-13T13:22:25.076Z,54.70
2019-03-13T13:23:29.301Z,55.80
2019-03-13T13:24:33.537Z,57.20
2019-03-13T13:25:37.867Z,58.10
2019-03-13T13:26:42.145Z,57.80
2019-03-13T13:27:46.413Z,56.60
2019-03-13T13:28:50.764Z,55.80
2019-03-13T13:29:54.989Z,55.80
2019-03-13T13:30:59.280Z,56.80
2019-03-13T13:32:03.683Z,57.60
2019-03-13T13:33:08.056Z,56.30
2019-03-13T13:34:12.334Z,57.20
2019-03-13T13:35:16.553Z,57.60
2019-03-13T13:36:20.834Z,57.80
2019-03-13T13:37:25.112Z,56.60
2019-03-13T13:38:29.403Z,56.40
2019-03-13T13:39:34.084Z,56.00
2019-03-13T13:40:38.672Z,56.00
2019-03-13T13:41:42.894Z,57.40
2019-03-13T13:42:47.159Z,57.50
2019-03-13T13:43:51.485Z,56.30
2019-03-13T13:44:55.754Z,55.80
2019-03-13T13:46:16.405Z,56.50
2019-03-13T13:47:20.653Z,55.40
2019-03-13T13:48:25.002Z,57.70
2019-03-13T13:49:29.305Z,58.40
2019-03-13T13:50:33.538Z,59.50
2019-03-13T13:51:37.832Z,60.80
2019-03-13T13:52:42.113Z,61.40
2019-03-13T13:53:46.448Z,61.20
2019-03-13T13:54:51.035Z,62.10
2019-03-13T13:55:55.611Z,62.40
2019-03-13T13:56:59.803Z,62.80
2019-03-13T13:58:03.994Z,64.00
2019-03-13T13:59:08.310Z,63.30
2019-03-13T14:00:12.689Z,65.00
2019-03-13T14:01:16.950Z,63.50
2019-03-13T14:02:21.385Z,62.60
2019-03-13T14:03:25.736Z,62.60
2019-03-13T14:04:30.027Z,59.90
2019-03-13T14:05:34.634Z,59.70
2019-03-13T14:06:38.977Z,60.60
2019-03-13T14:07:43.265Z,62.10
2019-03-13T14:08:47.557Z,59.50
2019-03-13T14:09:51.745Z,58.20
2019-03-13T14:10:56.046Z,59.10
2019-03-13T14:12:00.295Z,57.90
2019-03-13T14:13:04.837Z,57.00
2019-03-13T14:14:09.005Z,58.80
2019-03-13T14:15:13.399Z,59.90
2019-03-13T14:16:17.620Z,59.40
2019-03-13T14:17:21.881Z,58.10
2019-03-13T14:18:26.150Z,58.70
2019-03-13T14:19:30.299Z,59.90
2019-03-13T14:20:34.475Z,59.90
2019-03-13T14:21:38.774Z,60.20
2019-03-13T14:22:42.971Z,59.30
2019-03-13T14:23:47.345Z,59.60
2019-03-13T14:24:51.535Z,59.90
2019-03-13T14:25:55.841Z,59.90
2019-03-13T14:27:13.473Z,60.20
2019-03-13T14:28:06.038Z,59.90
2019-03-13T14:29:10.346Z,60.40
2019-03-13T14:30:15.381Z,60.80
2019-03-13T14:31:19.655Z,59.80
2019-03-13T14:32:23.985Z,60.80
2019-03-13T14:33:28.275Z,60.80
2019-03-13T14:34:32.541Z,60.80
2019-03-13T14:35:36.827Z,62.70
2019-03-13T14:36:41.007Z,59.70
2019-03-13T14:37:45.302Z,59.50
2019-03-13T14:38:49.524Z,59.90
2019-03-13T14:39:54.126Z,59.90
2019-03-13T14:40:58.459Z,60.10
2019-03-13T14:42:02.749Z,62.20
2019-03-13T14:43:06.931Z,77.80
2019-03-13T14:44:11.515Z,82.80
2019-03-13T14:45:16.614Z,83.60
2019-03-13T14:46:20.920Z,92.30
2019-03-13T14:47:25.237Z,90.90
2019-03-13T14:48:29.723Z,92.40
2019-03-13T14:49:34.057Z,92.60
2019-03-13T14:50:38.275Z,82.70
2019-03-13T14:51:42.563Z,79.80
2019-03-13T14:52:46.700Z,79.00
2019-03-13T14:53:50.847Z,78.00
2019-03-13T14:54:55.193Z,78.30
2019-03-13T14:55:59.396Z,76.90
2019-03-13T14:57:03.667Z,75.80
2019-03-13T14:58:08.033Z,78.40
2019-03-13T14:59:12.203Z,82.20
2019-03-13T15:00:17.324Z,78.60
2019-03-13T15:01:21.603Z,77.70
2019-03-13T15:02:25.781Z,75.90
2019-03-13T15:03:30.059Z,76.50
2019-03-13T15:04:34.279Z,75.50
2019-03-13T15:05:38.589Z,76.40
2019-03-13T15:06:42.803Z,76.10
2019-03-13T15:07:47.086Z,76.90
2019-03-13T15:08:51.330Z,75.70
2019-03-13T15:09:55.507Z,73.30
2019-03-13T15:10:59.877Z,70.70
2019-03-13T15:12:04.179Z,73.00
2019-03-13T15:13:08.403Z,73.40
2019-03-13T15:14:12.750Z,68.70
2019-03-13T15:15:16.991Z,65.80
2019-03-13T15:16:21.291Z,67.80
2019-03-13T15:17:25.599Z,64.40
2019-03-13T15:18:29.892Z,63.30
2019-03-13T15:19:34.343Z,63.00
2019-03-13T15:20:38.538Z,63.00